Time;durP1;ratioP1;P1;durP2;ratioP2;P2;SDS_P1;SDS_P2;PMS_P1;PMS_P2;Temp;Humidity;BMP_temperature;BMP_pressure;BME280_temperature;BME280_humidity;BME280_pressure;Samples;Min_cycle;Max_cycle;Signal;HPM_P1;HPM_P2
2023/04/04 00:04:07;;;;;;;6.4;4.2;;;;;;;0.2;71.8;99310;;;;
2023/04/04 00:14:07;;;;;;;4.6;2.9;;;;;;;0.2;71.4;99300;;;;
2023/04/04 00:25:08;;;;;;;4.6;2.9;;;;;;;0.1;71.6;99310;;;;
2023/04/04 00:36:07;;;;;;;4.6;2.9;;;;;;;0.1;71.7;99300;;;;
2023/04/04 00:47:07;;;;;;;7.1;3.8;;;;;;;0;71.9;99310;;;;
2023/04/04 00:57:07;;;;;;;7.1;3.8;;;;;;;-0.2;72.4;99310;;;;
2023/04/04 01:08:07;;;;;;;7.1;3.8;;;;;;;-0.3;73.3;99310;;;;
2023/04/04 01:18:07;;;;;;;5.6;3.3;;;;;;;-0.5;73.9;99320;;;;
2023/04/04 01:28:07;;;;;;;5.6;3.3;;;;;;;-0.6;74.7;99320;;;;
2023/04/04 01:39:08;;;;;;;5.6;3.3;;;;;;;-0.7;75;99330;;;;
2023/04/04 01:50:07;;;;;;;6.8;3.1;;;;;;;-0.7;75.7;99320;;;;
2023/04/04 02:00:08;;;;;;;6.8;3.1;;;;;;;-0.8;76.2;99330;;;;
2023/04/04 02:10:08;;;;;;;6.8;3.1;;;;;;;-0.7;76.3;99320;;;;
2023/04/04 02:20:09;;;;;;;6;2.8;;;;;;;-0.7;76.4;99330;;;;
2023/04/04 02:30:08;;;;;;;6;2.8;;;;;;;-0.7;76.8;99330;;;;
2023/04/04 02:41:08;;;;;;;6;2.8;;;;;;;-0.7;77;99330;;;;
2023/04/04 02:52:07;;;;;;;6.1;3.6;;;;;;;-0.7;77;99330;;;;
2023/04/04 03:02:08;;;;;;;6.1;3.6;;;;;;;-0.6;77;99320;;;;
2023/04/04 03:13:07;;;;;;;6.1;3.6;;;;;;;-0.5;76.6;99310;;;;
2023/04/04 03:23:07;;;;;;;8.8;3.1;;;;;;;-0.4;76.4;99310;;;;
2023/04/04 03:33:08;;;;;;;8.8;3.1;;;;;;;-0.3;75.8;99310;;;;
2023/04/04 03:44:07;;;;;;;6.5;3.7;;;;;;;-0.2;75.7;99300;;;;
2023/04/04 03:54:08;;;;;;;6.5;3.7;;;;;;;-0.2;75.3;99290;;;;
2023/04/04 04:04:08;;;;;;;6.5;3.7;;;;;;;-0.1;75.2;99280;;;;
2023/04/04 04:15:08;;;;;;;5.3;2.7;;;;;;;0;75.1;99280;;;;
2023/04/04 04:26:08;;;;;;;5.3;2.7;;;;;;;0;74.9;99290;;;;
2023/04/04 04:36:08;;;;;;;5.3;2.7;;;;;;;0;74.7;99290;;;;
2023/04/04 04:47:08;;;;;;;5.9;2.9;;;;;;;0;75;99290;;;;
2023/04/04 04:57:08;;;;;;;5.9;2.9;;;;;;;0.1;74.9;99290;;;;
2023/04/04 05:07:08;;;;;;;5.9;2.9;;;;;;;0;74.9;99300;;;;
2023/04/04 05:18:08;;;;;;;6.6;3.1;;;;;;;0.1;75;99300;;;;
2023/04/04 05:28:08;;;;;;;6.6;3.1;;;;;;;0.1;75.1;99300;;;;
2023/04/04 05:39:08;;;;;;;6.6;3.1;;;;;;;0.3;74.5;99310;;;;
2023/04/04 05:49:08;;;;;;;8.4;3.5;;;;;;;0.6;74.4;99320;;;;
2023/04/04 06:00:08;;;;;;;8.4;3.5;;;;;;;1;72.5;99320;;;;
2023/04/04 06:11:08;;;;;;;8.4;3.5;;;;;;;1.1;72.4;99330;;;;
2023/04/04 06:22:08;;;;;;;8.3;4.3;;;;;;;1.4;71.2;99330;;;;
2023/04/04 06:33:08;;;;;;;8.3;4.3;;;;;;;1.4;70.4;99340;;;;
2023/04/04 06:43:09;;;;;;;7;3.6;;;;;;;1.5;70.4;99340;;;;
2023/04/04 06:54:08;;;;;;;7;3.6;;;;;;;1.6;70.1;99330;;;;
2023/04/04 07:04:08;;;;;;;7;3.6;;;;;;;2.1;70.1;99320;;;;
2023/04/04 07:15:08;;;;;;;6.8;4.1;;;;;;;2.2;68.5;99320;;;;
2023/04/04 07:26:08;;;;;;;6.8;4.1;;;;;;;2.4;67.3;99320;;;;
2023/04/04 07:37:08;;;;;;;6.8;4.1;;;;;;;1.9;68.2;99310;;;;
2023/04/04 07:48:08;;;;;;;8.3;4;;;;;;;2.3;67.7;99320;;;;
2023/04/04 07:58:08;;;;;;;8.3;4;;;;;;;2.5;65.9;99320;;;;
2023/04/04 08:09:08;;;;;;;8.3;4;;;;;;;2.9;65.4;99310;;;;
2023/04/04 08:19:08;;;;;;;7.9;4.1;;;;;;;3.5;64.4;99300;;;;
2023/04/04 08:29:09;;;;;;;7.9;4.1;;;;;;;3.3;62.9;99290;;;;
2023/04/04 08:40:08;;;;;;;7.9;4.1;;;;;;;3.4;61.3;99280;;;;
2023/04/04 08:50:08;;;;;;;7.4;3.5;;;;;;;3.7;59;99270;;;;
2023/04/04 09:01:08;;;;;;;7.4;3.5;;;;;;;3.7;58.9;99260;;;;
2023/04/04 09:11:08;;;;;;;7.4;3.5;;;;;;;4.1;56.4;99260;;;;
2023/04/04 09:22:08;;;;;;;5.9;3.5;;;;;;;3.9;47.9;99260;;;;
2023/04/04 09:32:08;;;;;;;5.9;3.5;;;;;;;4;48.5;99270;;;;
2023/04/04 09:42:08;;;;;;;5.9;3.5;;;;;;;4.2;45.8;99260;;;;
2023/04/04 09:52:09;;;;;;;;;;;;;;;4.7;47.3;99270;;;;
2023/04/04 10:03:08;;;;;;;5.7;2.6;;;;;;;4.6;44.8;99260;;;;
2023/04/04 10:13:09;;;;;;;5.7;2.6;;;;;;;4.9;47;99250;;;;
2023/04/04 10:24:08;;;;;;;5.7;2.4;;;;;;;5.1;45.8;99250;;;;
2023/04/04 10:34:08;;;;;;;5.7;2.4;;;;;;;5;46.5;99250;;;;
2023/04/04 10:44:08;;;;;;;5.7;2.4;;;;;;;5.2;45.8;99240;;;;
2023/04/04 10:54:08;;;;;;;7.1;2.8;;;;;;;5;46.2;99240;;;;
2023/04/04 11:05:08;;;;;;;7.1;2.8;;;;;;;4.5;46;99250;;;;
2023/04/04 11:15:09;;;;;;;7.1;2.8;;;;;;;4.6;48.3;99250;;;;
2023/04/04 11:26:08;;;;;;;6.3;3;;;;;;;4.7;48.7;99240;;;;
2023/04/04 11:36:08;;;;;;;6.3;3;;;;;;;4.9;46.5;99240;;;;
2023/04/04 11:47:08;;;;;;;;;;;;;;;5.3;46;99230;;;;
2023/04/04 11:58:08;;;;;;;4.1;2.1;;;;;;;5.9;45.9;99230;;;;
2023/04/04 12:09:11;;;;;;;4.1;2.1;;;;;;;5.8;46.5;99220;;;;
2023/04/04 12:20:08;;;;;;;4.1;2.1;;;;;;;5.7;47;99220;;;;
2023/04/04 12:30:14;;;;;;;8.7;3.8;;;;;;;6;47.3;99210;;;;
2023/04/04 12:41:08;;;;;;;8.7;3.8;;;;;;;5.6;47.7;99200;;;;
2023/04/04 12:52:09;;;;;;;4.5;2.4;;;;;;;5.7;48.7;99200;;;;
2023/04/04 13:03:08;;;;;;;4.5;2.4;;;;;;;5.6;48.3;99190;;;;
2023/04/04 13:13:08;;;;;;;4.5;2.4;;;;;;;4.9;48.6;99190;;;;
2023/04/04 13:23:08;;;;;;;5.5;3;;;;;;;5;50.1;99190;;;;
2023/04/04 13:33:08;;;;;;;5.5;3;;;;;;;4.9;49.2;99190;;;;
2023/04/04 13:43:10;;;;;;;5.5;3;;;;;;;4.9;49.7;99180;;;;
2023/04/04 13:54:08;;;;;;;5.9;2.5;;;;;;;4.6;49.8;99190;;;;
2023/04/04 14:05:08;;;;;;;5.9;2.5;;;;;;;4.4;51;99180;;;;
2023/04/04 14:15:08;;;;;;;5.9;2.5;;;;;;;4.4;51.3;99180;;;;
2023/04/04 14:26:08;;;;;;;13;6.2;;;;;;;4.5;51.3;99180;;;;
2023/04/04 14:37:08;;;;;;;;;;;;;;;4.3;52.7;99180;;;;
2023/04/04 14:47:08;;;;;;;7.3;3.6;;;;;;;3.9;54.2;99190;;;;
2023/04/04 14:57:08;;;;;;;7.3;3.6;;;;;;;3.9;55.5;99190;;;;
2023/04/04 15:08:08;;;;;;;7.3;3.6;;;;;;;3.5;55.6;99190;;;;
2023/04/04 15:18:08;;;;;;;6.6;3.6;;;;;;;3.2;56;99190;;;;
2023/04/04 15:29:08;;;;;;;;;;;;;;;3.1;55.6;99200;;;;
2023/04/04 15:39:09;;;;;;;8.3;5.6;;;;;;;3.1;55;99210;;;;
2023/04/04 15:49:08;;;;;;;;;;;;;;;3;55.5;99210;;;;
2023/04/04 16:00:08;;;;;;;7;4.1;;;;;;;2.8;55.1;99220;;;;
2023/04/04 16:11:08;;;;;;;7;4.1;;;;;;;2.6;55.3;99230;;;;
2023/04/04 16:21:08;;;;;;;7;4.1;;;;;;;2.3;55.1;99240;;;;
2023/04/04 16:31:08;;;;;;;14.4;8.2;;;;;;;2.1;56.2;99250;;;;
2023/04/04 16:41:08;;;;;;;14.4;8.2;;;;;;;1.9;55.8;99260;;;;
2023/04/04 16:52:09;;;;;;;20.2;9.7;;;;;;;1.6;56.6;99260;;;;
2023/04/04 17:02:08;;;;;;;20.2;9.7;;;;;;;1.5;56.8;99260;;;;
2023/04/04 17:12:08;;;;;;;20.2;9.7;;;;;;;1.1;56.8;99270;;;;
2023/04/04 17:22:08;;;;;;;15.8;7.2;;;;;;;0.8;57.3;99280;;;;
2023/04/04 17:33:08;;;;;;;15.8;7.2;;;;;;;0.6;58.1;99280;;;;
2023/04/04 17:43:08;;;;;;;15.8;7.2;;;;;;;0.5;58.6;99290;;;;
2023/04/04 17:53:08;;;;;;;25.4;11.5;;;;;;;0.4;58.7;99300;;;;
2023/04/04 18:03:08;;;;;;;25.4;11.5;;;;;;;0.2;58.6;99300;;;;
2023/04/04 18:13:08;;;;;;;25.4;11.5;;;;;;;0;59.1;99300;;;;
2023/04/04 18:24:10;;;;;;;58.1;28.8;;;;;;;0;57.6;99310;;;;
2023/04/04 18:34:08;;;;;;;58.1;28.8;;;;;;;0.1;57.6;99320;;;;
2023/04/04 18:45:08;;;;;;;58.1;28.8;;;;;;;0.2;57.2;99320;;;;
2023/04/04 18:56:08;;;;;;;42.1;19.1;;;;;;;0.3;56.6;99320;;;;
2023/04/04 19:07:08;;;;;;;42.1;19.1;;;;;;;0.4;56.1;99320;;;;
2023/04/04 19:17:11;;;;;;;42.1;19.1;;;;;;;0.5;56.3;99320;;;;
2023/04/04 19:28:08;;;;;;;13.6;7.6;;;;;;;0.5;56.7;99320;;;;
2023/04/04 19:38:08;;;;;;;13.6;7.6;;;;;;;0.6;57.1;99310;;;;
2023/04/04 19:49:08;;;;;;;13.6;7.6;;;;;;;0.5;57.2;99310;;;;
2023/04/04 19:59:08;;;;;;;7.2;2.9;;;;;;;0.6;57.3;99310;;;;
2023/04/04 20:10:08;;;;;;;7.2;2.9;;;;;;;0.6;57.5;99310;;;;
2023/04/04 20:20:08;;;;;;;7.2;2.9;;;;;;;0.7;58;99310;;;;
2023/04/04 20:30:09;;;;;;;6.8;3.9;;;;;;;0.7;58.1;99310;;;;
2023/04/04 20:41:08;;;;;;;6.8;3.9;;;;;;;0.7;58.6;99300;;;;
2023/04/04 20:51:08;;;;;;;8.5;4.6;;;;;;;0.6;57.8;99300;;;;
2023/04/04 21:01:08;;;;;;;8.5;4.6;;;;;;;0.6;56.4;99300;;;;
2023/04/04 21:12:08;;;;;;;8.5;4.6;;;;;;;0.5;56.7;99290;;;;
2023/04/04 21:22:08;;;;;;;9.4;4.8;;;;;;;0.4;55.9;99290;;;;
2023/04/04 21:32:08;;;;;;;9.4;4.8;;;;;;;0.3;56;99280;;;;
2023/04/04 21:42:08;;;;;;;9.4;4.8;;;;;;;0.1;56.6;99280;;;;
2023/04/04 21:52:08;;;;;;;7.9;4.2;;;;;;;-0.2;57.5;99280;;;;
2023/04/04 22:02:08;;;;;;;7.9;4.2;;;;;;;-0.5;58.2;99270;;;;
2023/04/04 22:12:13;;;;;;;7.9;4.2;;;;;;;-0.9;59.2;99260;;;;
2023/04/04 22:23:08;;;;;;;7.2;4.5;;;;;;;-1.3;59.7;99270;;;;
2023/04/04 22:34:09;;;;;;;7.2;4.5;;;;;;;-1.7;60.6;99260;;;;
2023/04/04 22:44:08;;;;;;;7.2;4.5;;;;;;;-2.1;61.6;99260;;;;
2023/04/04 22:54:08;;;;;;;6.2;2.9;;;;;;;-2.4;62.9;99260;;;;
2023/04/04 23:05:08;;;;;;;6.2;2.9;;;;;;;-2.7;64.2;99260;;;;
2023/04/04 23:15:08;;;;;;;6.2;2.9;;;;;;;-3;64.9;99250;;;;
2023/04/04 23:26:08;;;;;;;7.6;4.1;;;;;;;-3.2;65.9;99250;;;;
2023/04/04 23:36:08;;;;;;;7.6;4.1;;;;;;;-3.3;67.3;99240;;;;
2023/04/04 23:46:08;;;;;;;7.6;4.1;;;;;;;-3.5;68.3;99240;;;;
2023/04/04 23:56:08;;;;;;;8.2;3.8;;;;;;;-3.6;69;99240;;;;
